Terminal Aerodrome Forecast
Issued by NWS

Home | Current Version | Previous Version | Text Only | Print | Product List | Glossary On
Versions: 1 2 3 4 5 6 7 8 9 10 11 12 13 14 15 16 17 18
000
FTUS44 KLZK 301432 AAA
TAFLLQ
TAF AMD
KLLQ 301432Z 3015/0112 19010G18KT P6SM VCSH SCT025 BKN100
      TEMPO 3015/3016 VRB20G40KT
     FM301600 20008G16KT P6SM SCT060 BKN120
     FM010200 21005KT P6SM BKN060
     FM010600 26004KT P6SM SCT060 BKN250=

USA.gov is the U.S. government's official web portal to all federal, state and local government web resources and services.